East Newark, New Jersey
Current Conditions -  °F | °C
As of 11:51 AM on Saturday 22 Nov 2014 (Local Time) from KEWR Reporting Station
Few Clouds Few Clouds  
Wind Chill: 30°   Ceiling: Unl
Heat Index: 40°   Visibility: 10mi
Dew Point: 12°   Wind: 20mph
Humidity: 32%   Direction: 230°SW
Pressure: 30.39"   Gusts: 23mph
Location:  40.7442°N, 74.1517°W
Report Text: KEWR 221651Z 23017G20KT 10SM FEW250 04/M11 A3039 RMK AO2 SLP290 T00441111
Loading
Personal Weather Stations






























Interactive Weather Map New forecast layout! Learn more

10-Day Weather Forecast

Advertisements
Track Severe Weather on mobile